Time;durP1;ratioP1;P1;durP2;ratioP2;P2;SDS_P1;SDS_P2;PMS_P1;PMS_P2;Temp;Humidity;BMP_temperature;BMP_pressure;BME280_temperature;BME280_humidity;BME280_pressure;Samples;Min_cycle;Max_cycle;Signal;HPM_P1;HPM_P2
2021/12/14 00:01:34;;;;;;;23.30;11.75;;;5.10;66.60;;;;;;6244853;28;20450;-67
2021/12/14 00:04:37;;;;;;;29.50;11.00;;;5.10;66.60;;;;;;6243263;28;20053;-68
2021/12/14 00:07:38;;;;;;;36.22;12.20;;;5.10;66.80;;;;;;6229048;28;20037;-68
2021/12/14 00:13:52;;;;;;;23.48;11.82;;;5.10;66.80;;;;;;6246034;28;20041;-68
2021/12/14 00:16:57;;;;;;;33.63;12.88;;;5.20;66.90;;;;;;6257737;28;20037;-68
2021/12/14 00:20:00;;;;;;;27.33;11.63;;;5.10;66.80;;;;;;6270978;28;20402;-68
2021/12/14 00:26:03;;;;;;;30.90;11.77;;;5.10;66.90;;;;;;6270600;28;20040;-68
2021/12/14 00:29:05;;;;;;;36.63;13.27;;;5.10;66.90;;;;;;6270779;28;20503;-68
2021/12/14 00:32:10;;;;;;;27.60;12.63;;;5.10;66.90;;;;;;6241632;28;20455;-68
2021/12/14 00:35:13;;;;;;;26.52;12.88;;;5.10;66.90;;;;;;6245694;28;20058;-67
2021/12/14 00:38:16;;;;;;;34.65;12.23;;;5.10;66.90;;;;;;6229482;28;20040;-67
2021/12/14 00:41:21;;;;;;;38.88;14.95;;;5.00;66.80;;;;;;6262366;28;20048;-68
2021/12/14 00:44:22;;;;;;;37.92;12.75;;;5.10;66.90;;;;;;6262470;28;20057;-68
2021/12/14 00:47:23;;;;;;;24.33;11.48;;;5.10;66.90;;;;;;6236288;28;20447;-67
2021/12/14 00:50:28;;;;;;;29.92;13.65;;;5.10;66.80;;;;;;6245805;28;20057;-67
2021/12/14 00:53:31;;;;;;;30.67;13.95;;;5.00;66.70;;;;;;6246529;28;20380;-67
2021/12/14 00:56:33;;;;;;;36.20;13.75;;;5.00;66.80;;;;;;6230474;28;20053;-67
2021/12/14 00:59:35;;;;;;;22.70;9.77;;;5.00;67.00;;;;;;6228151;28;20033;-67
2021/12/14 01:02:37;;;;;;;41.38;12.90;;;5.00;67.00;;;;;;6227548;28;20115;-68
2021/12/14 01:05:44;;;;;;;26.02;11.23;;;5.00;67.00;;;;;;6246310;28;20041;-67
2021/12/14 01:08:48;;;;;;;21.00;11.07;;;5.00;66.90;;;;;;6245130;28;20149;-67
2021/12/14 01:11:51;;;;;;;37.00;13.63;;;4.90;66.80;;;;;;6246142;28;20030;-68
2021/12/14 01:15:12;;;;;;;41.97;14.25;;;4.80;67.00;;;;;;6245687;28;20030;-68
2021/12/14 01:18:44;;;;;;;20.75;11.90;;;4.80;67.20;;;;;;6245198;28;20037;-69
2021/12/14 01:25:10;;;;;;;26.85;11.18;;;4.80;67.30;;;;;;6245961;28;20045;-67
2021/12/14 01:28:17;;;;;;;31.25;13.57;;;4.80;67.30;;;;;;6245059;28;20029;-68
2021/12/14 01:31:31;;;;;;;31.42;10.75;;;4.80;67.20;;;;;;6245445;28;20458;-67
2021/12/14 01:34:35;;;;;;;30.77;11.05;;;4.80;67.10;;;;;;6242605;28;20041;-68
2021/12/14 01:37:42;;;;;;;29.50;11.27;;;4.70;67.30;;;;;;6244445;28;20413;-68
2021/12/14 01:40:53;;;;;;;35.92;10.65;;;4.70;67.40;;;;;;6227543;28;20091;-67
2021/12/14 01:43:59;;;;;;;23.58;8.50;;;4.60;67.30;;;;;;6244420;28;20044;-67
2021/12/14 01:47:10;;;;;;;24.17;11.43;;;4.60;67.50;;;;;;6257684;28;20179;-68
2021/12/14 01:50:20;;;;;;;26.75;11.77;;;4.60;67.60;;;;;;6268563;28;20033;-69
2021/12/14 01:53:45;;;;;;;29.98;13.05;;;4.50;67.80;;;;;;6254907;28;20098;-69
2021/12/14 01:56:46;;;;;;;28.88;11.18;;;4.50;68.00;;;;;;6260485;28;20030;-68
2021/12/14 01:59:54;;;;;;;24.65;11.32;;;4.50;68.10;;;;;;6258804;28;20041;-68
2021/12/14 02:02:55;;;;;;;20.73;8.93;;;4.50;68.20;;;;;;6257907;28;20053;-68
2021/12/14 02:05:56;;;;;;;22.10;8.85;;;4.50;68.20;;;;;;6244322;28;20377;-68
2021/12/14 02:09:08;;;;;;;29.33;12.63;;;4.50;68.30;;;;;;6244163;28;20108;-69
2021/12/14 02:12:17;;;;;;;19.48;10.65;;;4.50;68.30;;;;;;6244147;28;20029;-68
2021/12/14 02:15:41;;;;;;;21.13;9.85;;;4.50;68.30;;;;;;6227157;28;20025;-68
2021/12/14 02:18:55;;;;;;;32.72;11.73;;;4.50;68.30;;;;;;6204722;28;20403;-68
2021/12/14 02:21:56;;;;;;;23.30;10.80;;;4.50;68.30;;;;;;6241128;28;20038;-68
2021/12/14 02:24:58;;;;;;;20.30;10.93;;;4.50;68.40;;;;;;6245566;28;20037;-68
2021/12/14 02:28:11;;;;;;;25.95;11.75;;;4.50;68.40;;;;;;6251144;28;20120;-68
2021/12/14 02:31:17;;;;;;;25.52;12.35;;;4.50;68.30;;;;;;6272892;28;20413;-67
2021/12/14 02:34:18;;;;;;;33.47;9.88;;;4.60;68.30;;;;;;6252436;28;20053;-67
2021/12/14 02:37:38;;;;;;;28.05;12.00;;;4.50;68.10;;;;;;6248513;28;20435;-68
2021/12/14 02:41:05;;;;;;;22.05;9.18;;;4.50;68.10;;;;;;6246846;28;20482;-68
2021/12/14 02:44:11;;;;;;;27.08;10.57;;;4.60;68.10;;;;;;6247647;28;20388;-68
2021/12/14 02:47:16;;;;;;;24.75;10.23;;;4.50;68.10;;;;;;6263253;28;20305;-68
2021/12/14 02:50:17;;;;;;;30.92;11.73;;;4.50;68.10;;;;;;6256480;28;20033;-68
2021/12/14 02:53:19;;;;;;;23.05;9.20;;;4.50;68.10;;;;;;6273042;28;20045;-68
2021/12/14 02:56:26;;;;;;;30.88;12.57;;;4.50;67.90;;;;;;6270960;28;20471;-67
2021/12/14 02:59:32;;;;;;;22.83;11.80;;;4.50;68.50;;;;;;6272225;28;20033;-68
2021/12/14 03:02:34;;;;;;;37.28;13.00;;;4.40;67.80;;;;;;6263012;28;20319;-68
2021/12/14 03:05:39;;;;;;;31.58;11.70;;;4.40;68.10;;;;;;6247948;28;20061;-69
2021/12/14 03:08:46;;;;;;;26.33;9.57;;;4.40;68.20;;;;;;6231328;28;20114;-69
2021/12/14 03:11:47;;;;;;;21.13;9.00;;;4.40;68.20;;;;;;6247201;28;20044;-68
2021/12/14 03:14:58;;;;;;;23.40;10.77;;;4.40;68.20;;;;;;6231015;28;20129;-68
2021/12/14 03:18:07;;;;;;;31.77;13.98;;;4.40;68.10;;;;;;6243729;28;20033;-68
2021/12/14 03:21:12;;;;;;;26.35;11.73;;;4.40;68.10;;;;;;6248294;28;20049;-68
2021/12/14 03:24:16;;;;;;;20.40;9.77;;;4.40;68.10;;;;;;6247248;28;20350;-68
2021/12/14 03:27:17;;;;;;;23.13;10.95;;;4.40;68.00;;;;;;6247416;28;20112;-68
2021/12/14 03:30:30;;;;;;;26.88;9.93;;;4.40;67.90;;;;;;6247631;28;20052;-68
2021/12/14 03:33:37;;;;;;;30.05;9.60;;;4.40;67.90;;;;;;6243177;28;20046;-68
2021/12/14 03:36:46;;;;;;;24.02;10.18;;;4.50;67.70;;;;;;6201341;28;20030;-68
2021/12/14 03:39:51;;;;;;;34.28;12.30;;;4.40;67.40;;;;;;6220419;28;20474;-68
2021/12/14 03:42:52;;;;;;;28.92;11.38;;;4.40;67.60;;;;;;6222532;28;20042;-68
2021/12/14 03:45:56;;;;;;;28.83;11.18;;;4.40;67.70;;;;;;6230391;28;20040;-68
2021/12/14 03:49:00;;;;;;;29.48;12.48;;;4.40;67.70;;;;;;6270923;28;20033;-68
2021/12/14 03:52:05;;;;;;;30.52;12.60;;;4.50;67.60;;;;;;6271516;28;20116;-68
2021/12/14 03:55:23;;;;;;;37.05;13.35;;;4.50;67.40;;;;;;6252950;28;20486;-68
2021/12/14 03:58:30;;;;;;;34.92;12.77;;;4.50;67.20;;;;;;6250850;28;20052;-68
2021/12/14 04:01:36;;;;;;;29.35;9.50;;;4.40;67.30;;;;;;6271106;28;20076;-68
2021/12/14 04:04:47;;;;;;;30.83;10.73;;;4.30;67.50;;;;;;6245912;28;20120;-68
2021/12/14 04:07:48;;;;;;;;;;;4.30;67.80;;;;;;6246083;28;20064;-67
2021/12/14 04:10:54;;;;;;;26.48;10.15;;;4.30;68.00;;;;;;6246666;28;19943;-69
2021/12/14 04:13:56;;;;;;;25.73;10.68;;;4.30;68.10;;;;;;6246149;28;20034;-67
2021/12/14 04:17:09;;;;;;;24.85;8.90;;;4.30;68.10;;;;;;6246367;28;20052;-69
2021/12/14 04:20:24;;;;;;;22.23;10.98;;;4.30;68.10;;;;;;6245847;28;20033;-68
2021/12/14 04:23:29;;;;;;;33.83;11.38;;;4.40;68.20;;;;;;6246300;28;20516;-68
2021/12/14 04:26:30;;;;;;;26.50;10.00;;;4.40;68.30;;;;;;6247143;28;20037;-68
2021/12/14 04:29:33;;;;;;;29.67;11.18;;;4.50;68.30;;;;;;6230906;28;20129;-68
2021/12/14 04:32:38;;;;;;;26.90;9.65;;;4.50;68.30;;;;;;6212305;28;20398;-68
2021/12/14 04:35:43;;;;;;;38.30;10.80;;;4.50;68.30;;;;;;6246929;28;20029;-67
2021/12/14 04:38:52;;;;;;;34.10;11.23;;;4.50;68.30;;;;;;6246765;28;20087;-68
2021/12/14 04:53:10;;;;;;;24.13;11.10;;;4.60;68.50;;;;;;6271185;28;20346;-67
2021/12/14 04:56:29;;;;;;;37.63;11.43;;;4.60;68.80;;;;;;6271378;28;20107;-68
2021/12/14 04:59:35;;;;;;;36.42;10.50;;;4.60;69.00;;;;;;6253799;28;20033;-67
2021/12/14 05:02:37;;;;;;;36.45;11.82;;;4.60;69.00;;;;;;6262635;28;20030;-69
2021/12/14 05:06:08;;;;;;;31.10;11.18;;;4.70;69.10;;;;;;6244393;28;20037;-67
2021/12/14 05:12:30;;;;;;;37.63;11.98;;;4.70;68.90;;;;;;6236783;28;20037;-67
2021/12/14 05:15:58;;;;;;;30.15;9.50;;;4.70;69.10;;;;;;6240332;28;20350;-68
2021/12/14 05:19:03;;;;;;;26.55;11.20;;;4.70;69.10;;;;;;6267758;28;20406;-69
2021/12/14 05:22:13;;;;;;;30.35;10.27;;;4.70;69.20;;;;;;6268666;28;20033;-69
2021/12/14 05:25:26;;;;;;;41.22;12.32;;;4.70;69.40;;;;;;6267609;28;20025;-69
2021/12/14 05:28:33;;;;;;;40.78;11.68;;;4.70;69.60;;;;;;6260319;28;20046;-68
2021/12/14 05:31:48;;;;;;;33.35;12.32;;;4.70;69.60;;;;;;6227077;28;20033;-68
2021/12/14 05:34:50;;;;;;;41.33;12.15;;;4.80;69.60;;;;;;6241929;28;20087;-67
2021/12/14 05:37:55;;;;;;;49.08;12.70;;;4.80;69.60;;;;;;6228013;28;20112;-68
2021/12/14 05:41:10;;;;;;;39.77;12.53;;;4.80;69.70;;;;;;6243799;28;20044;-68
2021/12/14 05:44:23;;;;;;;28.45;11.25;;;4.80;69.90;;;;;;6244572;28;20057;-68
2021/12/14 05:47:24;;;;;;;47.78;12.38;;;4.80;70.00;;;;;;6259753;28;20033;-69
2021/12/14 05:50:52;;;;;;;41.58;12.00;;;4.80;70.10;;;;;;6268896;28;20037;-70
2021/12/14 05:53:53;;;;;;;38.17;13.95;;;4.80;70.20;;;;;;6244055;28;20041;-69
2021/12/14 05:56:56;;;;;;;40.35;13.75;;;4.80;70.20;;;;;;6244486;28;20080;-69
2021/12/14 05:59:58;;;;;;;29.63;12.15;;;4.80;70.30;;;;;;6228350;28;20056;-70
2021/12/14 06:03:01;;;;;;;39.00;13.43;;;4.90;70.40;;;;;;6258484;28;20034;-69
2021/12/14 06:06:03;;;;;;;45.25;15.63;;;4.90;70.40;;;;;;6245229;28;20041;-67
2021/12/14 06:09:09;;;;;;;27.65;11.63;;;4.90;70.40;;;;;;6245199;28;20041;-68
2021/12/14 06:12:24;;;;;;;39.28;14.38;;;4.90;70.50;;;;;;6244971;28;20102;-68
2021/12/14 06:15:28;;;;;;;47.20;12.75;;;4.90;70.50;;;;;;6245223;28;20443;-67
2021/12/14 06:18:41;;;;;;;32.22;11.25;;;5.00;70.70;;;;;;6241224;28;20037;-67
2021/12/14 06:22:06;;;;;;;52.03;12.10;;;5.00;70.80;;;;;;6245846;28;20079;-68
2021/12/14 06:25:13;;;;;;;31.08;12.40;;;5.00;70.80;;;;;;6245050;28;20037;-68
2021/12/14 06:28:23;;;;;;;38.13;12.43;;;5.10;71.00;;;;;;6248461;28;20033;-68
2021/12/14 06:31:24;;;;;;;47.35;12.05;;;5.10;71.00;;;;;;6270331;28;20057;-68
2021/12/14 06:34:28;;;;;;;38.00;12.05;;;5.20;70.80;;;;;;6242495;28;20052;-68
2021/12/14 06:41:15;;;;;;;46.38;12.55;;;5.10;70.80;;;;;;6226626;28;20473;-68
2021/12/14 06:44:22;;;;;;;37.45;12.05;;;5.20;71.00;;;;;;6211141;28;20037;-68
2021/12/14 06:47:30;;;;;;;47.13;13.98;;;5.20;71.00;;;;;;6213875;28;20237;-69
2021/12/14 06:50:40;;;;;;;33.65;11.93;;;5.30;71.00;;;;;;6202219;28;20045;-68
2021/12/14 06:53:50;;;;;;;39.70;12.60;;;5.30;70.90;;;;;;6209654;28;20029;-68
2021/12/14 06:57:10;;;;;;;37.13;12.38;;;5.40;70.80;;;;;;6241420;28;20061;-71
2021/12/14 07:00:29;;;;;;;33.90;12.52;;;5.30;70.80;;;;;;6249770;28;20036;-69
2021/12/14 07:03:37;;;;;;;34.50;10.85;;;5.40;70.80;;;;;;6220546;28;20045;-68
2021/12/14 07:06:47;;;;;;;34.17;11.38;;;5.40;70.80;;;;;;6203781;28;20034;-68
2021/12/14 07:09:55;;;;;;;29.40;10.13;;;5.40;70.80;;;;;;6230400;28;20065;-68
2021/12/14 07:12:56;;;;;;;40.63;12.07;;;5.40;70.80;;;;;;6236761;28;20088;-68
2021/12/14 07:15:58;;;;;;;46.22;11.68;;;5.40;70.80;;;;;;6203983;28;20061;-68
2021/12/14 07:19:03;;;;;;;35.60;10.63;;;5.50;70.80;;;;;;6223343;28;20030;-68
2021/12/14 07:22:04;;;;;;;29.17;11.25;;;5.50;70.60;;;;;;6222893;28;20092;-68
2021/12/14 07:25:11;;;;;;;43.25;9.00;;;5.50;70.60;;;;;;6219064;28;20056;-69
2021/12/14 07:28:15;;;;;;;20.30;7.80;;;5.50;70.70;;;;;;6237772;28;20030;-69
2021/12/14 07:31:21;;;;;;;17.05;7.45;;;5.60;70.80;;;;;;6248057;28;20077;-68
2021/12/14 07:34:22;;;;;;;31.08;8.13;;;5.60;70.70;;;;;;6246492;28;20137;-68
2021/12/14 07:37:35;;;;;;;23.70;6.40;;;5.60;70.60;;;;;;6247176;28;20030;-68
2021/12/14 07:40:42;;;;;;;23.95;8.35;;;5.60;70.50;;;;;;6231168;28;20038;-68
2021/12/14 07:43:51;;;;;;;19.48;7.72;;;5.70;70.40;;;;;;6280018;28;20053;-68
2021/12/14 07:47:02;;;;;;;24.33;7.22;;;5.70;70.40;;;;;;6247589;28;20041;-68
2021/12/14 07:50:03;;;;;;;16.65;6.13;;;5.70;70.30;;;;;;6228248;28;20450;-68
2021/12/14 07:53:05;;;;;;;13.45;4.95;;;5.70;70.10;;;;;;6252109;28;20068;-68
2021/12/14 07:56:20;;;;;;;24.15;7.20;;;5.70;70.20;;;;;;6248177;28;20110;-68
2021/12/14 07:59:26;;;;;;;25.23;7.35;;;5.70;70.20;;;;;;6243173;28;20461;-69
2021/12/14 08:02:31;;;;;;;14.30;8.10;;;5.70;70.20;;;;;;6210294;28;20030;-68
2021/12/14 08:05:42;;;;;;;30.58;7.85;;;5.80;70.20;;;;;;6229357;28;20033;-68
2021/12/14 08:08:53;;;;;;;28.23;8.05;;;5.80;70.10;;;;;;6246758;28;20347;-67
2021/12/14 08:11:54;;;;;;;24.63;8.90;;;5.90;70.00;;;;;;6230414;28;20116;-67
2021/12/14 08:15:10;;;;;;;26.05;9.35;;;5.90;69.90;;;;;;6223320;28;20515;-67
2021/12/14 08:18:20;;;;;;;22.30;9.50;;;5.90;69.90;;;;;;6260913;28;20063;-68
2021/12/14 08:21:25;;;;;;;21.25;9.07;;;6.00;69.70;;;;;;6272155;28;20040;-68
2021/12/14 08:24:27;;;;;;;32.63;9.85;;;6.00;70.20;;;;;;6260448;28;20037;-69
2021/12/14 08:27:30;;;;;;;30.00;8.15;;;5.90;69.40;;;;;;6248154;28;20048;-68
2021/12/14 08:30:32;;;;;;;26.20;9.60;;;5.90;69.50;;;;;;6240375;28;20103;-67
2021/12/14 08:33:33;;;;;;;20.08;6.78;;;5.90;69.50;;;;;;6236471;28;20421;-67
2021/12/14 08:36:51;;;;;;;22.63;7.90;;;5.90;69.50;;;;;;6226242;28;20096;-67
2021/12/14 08:39:58;;;;;;;24.27;8.20;;;5.90;69.60;;;;;;6238507;28;20130;-69
2021/12/14 08:43:12;;;;;;;29.45;10.05;;;6.00;69.70;;;;;;6232695;28;20048;-68
2021/12/14 08:46:22;;;;;;;21.95;8.32;;;6.00;69.60;;;;;;6195177;28;20034;-68
2021/12/14 08:49:24;;;;;;;27.30;9.82;;;6.10;69.40;;;;;;6211812;28;20105;-68
2021/12/14 08:52:26;;;;;;;23.58;8.75;;;6.10;69.30;;;;;;6232219;28;20444;-68
2021/12/14 08:55:32;;;;;;;32.17;10.10;;;6.20;69.20;;;;;;6230216;28;20037;-68
2021/12/14 08:58:33;;;;;;;28.20;8.65;;;6.20;69.20;;;;;;6238353;28;20034;-68
2021/12/14 09:01:40;;;;;;;25.55;8.60;;;6.20;69.20;;;;;;6231392;28;20101;-68
2021/12/14 09:05:09;;;;;;;31.02;9.25;;;6.30;69.10;;;;;;6226204;28;20084;-68
2021/12/14 09:08:10;;;;;;;30.67;9.65;;;6.30;68.70;;;;;;6219493;28;20537;-69
2021/12/14 09:11:15;;;;;;;25.80;8.15;;;6.30;68.50;;;;;;6230900;28;20041;-68
2021/12/14 09:14:17;;;;;;;36.17;10.20;;;6.30;68.60;;;;;;6245502;28;20473;-70
2021/12/14 09:17:24;;;;;;;25.35;9.48;;;6.30;68.60;;;;;;6240958;28;20029;-67
2021/12/14 09:20:30;;;;;;;32.05;9.13;;;6.30;68.50;;;;;;6245490;28;20041;-68
2021/12/14 09:23:38;;;;;;;36.83;11.05;;;6.30;68.40;;;;;;6224286;28;20031;-69
2021/12/14 09:26:45;;;;;;;41.38;12.57;;;6.20;68.50;;;;;;6231305;28;20328;-68
2021/12/14 09:29:48;;;;;;;34.25;9.77;;;6.20;68.50;;;;;;6234071;28;20088;-68
2021/12/14 09:32:49;;;;;;;35.38;9.23;;;6.20;68.70;;;;;;6235546;28;20029;-67
2021/12/14 09:35:53;;;;;;;32.58;9.70;;;6.20;68.80;;;;;;6230190;28;20033;-68
2021/12/14 09:38:58;;;;;;;43.83;10.55;;;6.20;68.70;;;;;;6213714;28;20194;-68
2021/12/14 09:42:03;;;;;;;29.00;9.55;;;6.20;68.80;;;;;;6229255;28;20110;-68
2021/12/14 09:45:13;;;;;;;37.10;10.63;;;6.10;68.80;;;;;;6231471;28;20037;-68
2021/12/14 09:48:19;;;;;;;27.00;9.32;;;6.20;68.70;;;;;;6247982;28;20132;-68
2021/12/14 09:51:27;;;;;;;31.88;9.82;;;6.20;68.80;;;;;;6242911;28;20473;-68
2021/12/14 09:54:29;;;;;;;39.08;9.85;;;6.30;68.90;;;;;;6257101;28;20040;-68
2021/12/14 09:57:42;;;;;;;58.33;20.35;;;6.30;68.70;;;;;;6270018;28;20064;-68
2021/12/14 10:00:55;;;;;;;43.00;16.45;;;6.40;68.70;;;;;;6253117;28;20033;-68
2021/12/14 10:03:59;;;;;;;32.45;13.77;;;6.40;68.70;;;;;;6250429;28;20041;-68
2021/12/14 10:07:03;;;;;;;37.00;12.30;;;6.50;68.70;;;;;;6240907;28;20037;-68
2021/12/14 10:10:12;;;;;;;43.47;12.18;;;6.50;68.50;;;;;;6228676;28;20044;-69
2021/12/14 10:13:13;;;;;;;26.02;10.00;;;6.60;68.30;;;;;;6246088;28;20064;-69
2021/12/14 10:16:14;;;;;;;34.65;13.60;;;6.60;68.20;;;;;;6244230;28;20091;-67
2021/12/14 10:19:19;;;;;;;36.33;15.18;;;6.60;68.00;;;;;;6237732;28;20418;-70
2021/12/14 10:22:28;;;;;;;49.50;15.27;;;6.60;67.80;;;;;;6244949;28;20394;-68
2021/12/14 10:25:30;;;;;;;45.47;15.65;;;6.70;68.00;;;;;;6245178;28;20025;-69
2021/12/14 10:28:34;;;;;;;35.08;12.35;;;6.60;67.70;;;;;;6237201;28;20591;-69
2021/12/14 10:31:46;;;;;;;38.10;10.60;;;6.60;67.50;;;;;;6260996;28;20029;-69
2021/12/14 10:34:52;;;;;;;39.10;14.15;;;6.50;67.60;;;;;;6251833;28;20033;-69
2021/12/14 10:37:56;;;;;;;54.25;18.13;;;6.50;67.80;;;;;;6242378;28;20358;-68
2021/12/14 10:44:37;;;;;;;48.53;18.50;;;6.50;67.60;;;;;;6247212;28;20041;-68
2021/12/14 10:47:41;;;;;;;42.47;15.47;;;6.40;67.60;;;;;;6259549;28;20037;-68
2021/12/14 10:50:43;;;;;;;52.47;18.77;;;6.40;67.80;;;;;;6273745;28;20037;-68
2021/12/14 10:53:47;;;;;;;42.03;16.83;;;6.40;67.90;;;;;;6272310;28;20106;-68
2021/12/14 10:56:58;;;;;;;38.70;14.65;;;6.50;68.10;;;;;;6272014;28;20044;-68
2021/12/14 10:59:59;;;;;;;54.05;18.20;;;6.50;68.00;;;;;;6255231;28;20045;-69
2021/12/14 11:03:10;;;;;;;27.05;9.93;;;6.60;67.90;;;;;;6228656;28;20042;-69
2021/12/14 11:06:16;;;;;;;29.88;10.07;;;6.60;67.70;;;;;;6249746;28;20119;-68
2021/12/14 11:09:46;;;;;;;24.27;8.18;;;6.60;67.60;;;;;;6248020;28;20517;-68
2021/12/14 11:12:50;;;;;;;39.05;12.30;;;6.70;67.50;;;;;;6248908;28;20042;-68
2021/12/14 11:15:54;;;;;;;23.75;7.65;;;6.60;67.40;;;;;;6248003;28;20034;-68
2021/12/14 11:19:02;;;;;;;20.33;7.20;;;6.70;67.30;;;;;;6231129;28;20063;-67
2021/12/14 11:22:11;;;;;;;16.88;6.25;;;6.70;67.30;;;;;;6249593;28;20030;-69
2021/12/14 11:25:23;;;;;;;30.50;10.82;;;6.70;67.40;;;;;;6247630;28;20049;-69
2021/12/14 11:28:33;;;;;;;44.53;16.15;;;6.70;67.10;;;;;;6235254;28;20037;-68
2021/12/14 11:31:41;;;;;;;27.05;10.20;;;6.80;67.20;;;;;;6273066;28;20043;-68
2021/12/14 11:34:45;;;;;;;17.65;7.47;;;6.80;67.00;;;;;;6256879;28;20403;-69
2021/12/14 11:37:46;;;;;;;21.65;8.27;;;6.90;66.90;;;;;;6251914;28;20343;-68
2021/12/14 11:40:47;;;;;;;34.33;13.45;;;6.90;66.80;;;;;;6281101;28;20100;-69
2021/12/14 11:43:52;;;;;;;50.20;18.77;;;6.90;67.00;;;;;;6247575;28;20061;-69
2021/12/14 11:50:35;;;;;;;27.08;10.57;;;7.00;67.00;;;;;;6271812;28;20048;-71
2021/12/14 11:53:38;;;;;;;38.58;16.33;;;7.10;66.40;;;;;;6271925;28;20029;-68
2021/12/14 11:56:39;;;;;;;43.10;13.10;;;7.10;66.40;;;;;;6272890;28;20049;-68
2021/12/14 11:59:40;;;;;;;28.52;11.23;;;7.10;66.40;;;;;;6256310;28;20041;-70
2021/12/14 12:02:41;;;;;;;44.88;13.52;;;7.10;66.60;;;;;;6241933;28;20367;-68
2021/12/14 12:06:00;;;;;;;48.55;14.07;;;7.20;66.60;;;;;;6248274;28;20037;-69
2021/12/14 12:09:29;;;;;;;36.22;15.20;;;7.30;66.60;;;;;;6245335;28;20048;-68
2021/12/14 12:12:32;;;;;;;;;;;7.50;66.40;;;;;;6260923;28;20358;-68
2021/12/14 12:15:40;;;;;;;45.67;12.65;;;7.60;66.00;;;;;;6272239;28;19916;-67
2021/12/14 12:19:13;;;;;;;57.47;10.50;;;7.60;65.70;;;;;;6261456;28;20033;-68
2021/12/14 12:22:15;;;;;;;32.15;11.68;;;7.70;65.30;;;;;;6246024;28;20120;-69
2021/12/14 12:25:22;;;;;;;30.58;11.10;;;7.70;65.10;;;;;;6229688;28;20056;-68
2021/12/14 12:28:34;;;;;;;27.38;10.20;;;7.80;65.20;;;;;;6251857;28;20048;-68
2021/12/14 12:31:45;;;;;;;28.63;11.30;;;7.80;65.00;;;;;;6270642;28;20033;-68
2021/12/14 12:34:48;;;;;;;35.35;10.50;;;7.80;64.70;;;;;;6207299;28;20053;-68
2021/12/14 12:37:49;;;;;;;25.67;9.55;;;7.80;65.00;;;;;;6197710;28;20445;-69
2021/12/14 12:41:07;;;;;;;33.10;9.93;;;7.90;65.10;;;;;;6196495;28;20066;-68
2021/12/14 12:44:14;;;;;;;37.45;11.35;;;7.90;64.90;;;;;;6196151;28;20129;-68
2021/12/14 12:47:21;;;;;;;26.48;9.98;;;7.90;64.50;;;;;;6188864;28;20426;-68
2021/12/14 12:50:25;;;;;;;24.80;10.90;;;7.90;64.30;;;;;;6246308;28;20080;-69
2021/12/14 12:53:28;;;;;;;34.22;11.25;;;7.90;64.40;;;;;;6245634;28;20123;-69
2021/12/14 12:56:31;;;;;;;24.55;10.38;;;7.90;64.50;;;;;;6246842;28;20029;-69
2021/12/14 12:59:38;;;;;;;27.48;9.38;;;7.90;64.40;;;;;;6259714;28;20423;-68
2021/12/14 13:02:58;;;;;;;35.65;10.75;;;7.90;64.50;;;;;;6262088;28;20099;-68
2021/12/14 13:06:14;;;;;;;29.70;10.30;;;7.90;64.60;;;;;;6228892;28;20167;-68
2021/12/14 13:09:15;;;;;;;29.40;10.98;;;7.90;64.40;;;;;;6242658;28;20046;-69
2021/12/14 13:12:47;;;;;;;35.08;10.98;;;7.90;64.20;;;;;;6245156;28;20188;-69
2021/12/14 13:15:52;;;;;;;37.78;10.82;;;7.90;64.40;;;;;;6240956;28;20042;-69
2021/12/14 13:19:01;;;;;;;36.97;13.88;;;7.90;64.30;;;;;;6267063;28;20032;-69
2021/12/14 13:22:05;;;;;;;34.80;12.48;;;7.90;64.10;;;;;;6267313;28;20044;-69
2021/12/14 13:25:06;;;;;;;23.20;8.48;;;7.90;64.10;;;;;;6268903;28;20048;-68
2021/12/14 13:28:08;;;;;;;41.03;13.80;;;7.80;64.90;;;;;;6247583;28;20059;-68
2021/12/14 13:31:09;;;;;;;47.80;14.30;;;7.70;64.10;;;;;;6251054;28;20416;-68
2021/12/14 13:34:17;;;;;;;25.85;11.05;;;7.70;64.50;;;;;;6246597;28;20033;-70
2021/12/14 13:37:31;;;;;;;49.97;14.70;;;7.60;64.80;;;;;;6246934;28;20414;-71
2021/12/14 13:40:40;;;;;;;40.63;17.13;;;7.70;65.00;;;;;;6254666;28;20170;-69
2021/12/14 13:43:41;;;;;;;29.98;11.60;;;7.60;64.80;;;;;;6260278;28;20042;-70
2021/12/14 13:46:44;;;;;;;26.25;11.10;;;7.70;64.90;;;;;;6232033;28;20378;-70
2021/12/14 13:49:46;;;;;;;24.38;9.68;;;7.70;64.80;;;;;;6268039;28;20397;-69
2021/12/14 13:52:48;;;;;;;21.85;8.75;;;7.60;64.60;;;;;;6269920;28;20059;-68
2021/12/14 13:55:53;;;;;;;27.13;10.35;;;7.60;64.60;;;;;;6252014;28;20519;-68
2021/12/14 13:58:56;;;;;;;39.10;10.55;;;7.50;64.80;;;;;;6238322;28;20043;-68
2021/12/14 14:01:57;;;;;;;28.65;10.50;;;7.50;65.00;;;;;;6268633;28;20454;-68
2021/12/14 14:04:59;;;;;;;35.85;11.15;;;7.40;65.00;;;;;;6243417;28;20048;-69
2021/12/14 14:08:11;;;;;;;50.65;10.25;;;7.40;65.30;;;;;;6244082;28;20355;-69
2021/12/14 14:11:14;;;;;;;25.00;9.40;;;7.40;65.40;;;;;;6242995;28;20132;-68
2021/12/14 14:14:29;;;;;;;31.40;12.82;;;7.40;65.60;;;;;;6245138;28;20120;-69
2021/12/14 14:17:33;;;;;;;29.30;11.88;;;7.40;65.60;;;;;;6258168;28;20037;-68
2021/12/14 14:20:37;;;;;;;32.28;10.85;;;7.40;65.60;;;;;;6271676;28;20465;-68
2021/12/14 14:23:46;;;;;;;37.28;9.25;;;7.40;66.50;;;;;;6246434;28;20034;-68
2021/12/14 14:26:48;;;;;;;28.33;10.32;;;7.40;65.60;;;;;;6243175;28;20465;-67
2021/12/14 14:29:50;;;;;;;23.80;8.40;;;7.40;65.50;;;;;;6249762;28;20033;-68
2021/12/14 14:33:25;;;;;;;34.60;10.80;;;7.40;65.60;;;;;;6246805;28;20118;-68
2021/12/14 14:36:34;;;;;;;35.67;10.73;;;7.40;65.60;;;;;;6231172;28;20051;-68
2021/12/14 14:39:45;;;;;;;31.27;11.50;;;7.30;65.70;;;;;;6249567;28;20407;-69
2021/12/14 14:42:55;;;;;;;38.00;12.82;;;7.30;65.70;;;;;;6249950;28;20030;-67
2021/12/14 14:45:56;;;;;;;43.10;11.55;;;7.30;65.80;;;;;;6249644;28;20038;-67
2021/12/14 14:48:57;;;;;;;33.72;11.68;;;7.20;65.70;;;;;;6272613;28;20037;-69
2021/12/14 14:52:22;;;;;;;37.08;11.43;;;7.20;65.90;;;;;;6274221;28;20029;-68
2021/12/14 14:55:45;;;;;;;28.92;10.15;;;7.20;66.10;;;;;;6274333;28;20063;-68
2021/12/14 14:58:46;;;;;;;24.52;8.68;;;7.20;66.20;;;;;;6277230;28;20048;-68
2021/12/14 15:01:47;;;;;;;20.33;8.18;;;7.20;66.10;;;;;;6275004;28;20049;-69
2021/12/14 15:05:08;;;;;;;28.77;9.82;;;7.20;66.20;;;;;;6247341;28;20033;-68
2021/12/14 15:08:19;;;;;;;31.00;9.32;;;7.10;66.00;;;;;;6248980;28;20041;-68
2021/12/14 15:11:29;;;;;;;26.10;8.82;;;7.00;66.10;;;;;;6249702;28;20044;-68
2021/12/14 15:14:42;;;;;;;20.42;6.28;;;6.90;66.40;;;;;;6248227;28;20040;-68
2021/12/14 15:17:49;;;;;;;23.58;8.27;;;6.90;66.70;;;;;;6259681;28;20033;-69
2021/12/14 15:20:50;;;;;;;22.08;8.35;;;6.70;66.70;;;;;;6273671;28;20439;-68
2021/12/14 15:23:52;;;;;;;32.45;10.05;;;6.70;67.10;;;;;;6271930;28;20090;-68
2021/12/14 15:27:14;;;;;;;32.30;10.90;;;6.70;67.50;;;;;;6270979;28;20037;-69
2021/12/14 15:30:26;;;;;;;32.47;9.95;;;6.60;68.40;;;;;;6272638;28;20330;-68
2021/12/14 15:33:38;;;;;;;24.38;9.38;;;6.60;67.70;;;;;;6245323;28;20398;-68
2021/12/14 15:36:39;;;;;;;27.00;9.23;;;6.50;67.80;;;;;;6245800;28;20025;-70
2021/12/14 15:39:40;;;;;;;35.30;10.32;;;6.50;68.00;;;;;;6245125;28;20033;-69
2021/12/14 15:43:05;;;;;;;37.28;10.65;;;6.50;68.00;;;;;;6244204;28;20040;-68
2021/12/14 15:46:24;;;;;;;30.02;9.93;;;6.60;68.10;;;;;;6244948;28;20030;-69
2021/12/14 15:49:31;;;;;;;29.52;10.60;;;6.50;68.00;;;;;;6242997;28;20025;-69
2021/12/14 15:52:32;;;;;;;14.40;7.10;;;6.50;68.00;;;;;;6244189;28;20029;-69
2021/12/14 15:55:33;;;;;;;28.67;11.65;;;6.50;68.20;;;;;;6244506;28;20065;-69
2021/12/14 15:58:36;;;;;;;30.92;10.15;;;6.40;68.20;;;;;;6245609;28;20091;-69
2021/12/14 16:01:55;;;;;;;32.20;12.23;;;6.40;68.30;;;;;;6244198;28;20066;-68
2021/12/14 16:05:03;;;;;;;32.42;12.60;;;6.40;68.40;;;;;;6248955;28;20079;-68
2021/12/14 16:08:05;;;;;;;32.10;10.63;;;6.40;68.70;;;;;;6271191;28;20354;-68
2021/12/14 16:11:21;;;;;;;24.10;8.02;;;6.40;68.80;;;;;;6269700;28;20047;-68
2021/12/14 16:17:58;;;;;;;25.65;7.82;;;6.30;68.80;;;;;;6255346;28;20063;-68
2021/12/14 16:21:00;;;;;;;24.38;7.68;;;6.30;68.90;;;;;;6235179;28;20045;-68
2021/12/14 16:24:01;;;;;;;22.45;8.90;;;6.30;69.00;;;;;;6239490;28;20041;-68
2021/12/14 16:27:03;;;;;;;22.08;8.20;;;6.20;69.20;;;;;;6243847;28;20037;-69
2021/12/14 16:30:07;;;;;;;25.83;9.32;;;6.30;69.10;;;;;;6245189;28;20048;-67
2021/12/14 16:33:48;;;;;;;31.90;8.55;;;6.30;69.80;;;;;;6242535;28;20037;-68
2021/12/14 16:36:53;;;;;;;25.58;9.55;;;6.30;69.20;;;;;;6152180;28;20118;-68
2021/12/14 16:39:54;;;;;;;24.85;7.53;;;6.30;69.30;;;;;;6170354;28;20042;-68
2021/12/14 16:42:56;;;;;;;28.70;8.30;;;6.30;69.30;;;;;;6186744;28;20153;-68
2021/12/14 16:45:58;;;;;;;29.48;9.10;;;6.30;69.30;;;;;;6186632;28;20102;-68